Rhame, North Dakota
Current Conditions -  °F | °C
As of 7:51 PM on Monday 22 Dec 2014 (Local Time) from KBHK Reporting Station
Light Snow Light Snow  
Wind Chill:   Ceiling: 2800
Heat Index: 23°   Visibility: 2mi
Dew Point: 20°   Wind: 18mph
Humidity: 88%   Direction: 320°NW
Pressure: 29.84"   Gusts: 26mph
Location:  46.23°N, 103.66°W
Report Text: KBHK 230251Z AUTO 32016G23KT 2SM -SN BR FEW010 OVC028 M05/M07 A2984 RMK AO2 SLP133 P0000 60000 T10501067 53008
Loading
Personal Weather Stations






























Interactive Weather Map New forecast layout! Learn more

10-Day Weather Forecast

Advertisements
Track Severe Weather on mobile